sensor_id;sensor_type;location;lat;lon;timestamp;P1;durP1;ratioP1;P2;durP2;ratioP2
20657;SDS011;10488;50.846;4.078;2023-06-22T00:00:54;7.88;;;3.08;;
20657;SDS011;10488;50.846;4.078;2023-06-22T00:03:21;7.35;;;3.60;;
20657;SDS011;10488;50.846;4.078;2023-06-22T00:05:49;8.15;;;3.42;;
20657;SDS011;10488;50.846;4.078;2023-06-22T00:08:15;6.72;;;3.90;;
20657;SDS011;10488;50.846;4.078;2023-06-22T00:10:41;8.50;;;3.58;;
20657;SDS011;10488;50.846;4.078;2023-06-22T00:13:07;6.82;;;3.92;;
20657;SDS011;10488;50.846;4.078;2023-06-22T00:15:34;7.97;;;4.22;;
20657;SDS011;10488;50.846;4.078;2023-06-22T00:18:01;7.25;;;4.40;;
20657;SDS011;10488;50.846;4.078;2023-06-22T00:20:27;7.72;;;4.15;;
20657;SDS011;10488;50.846;4.078;2023-06-22T00:22:54;7.97;;;3.83;;
20657;SDS011;10488;50.846;4.078;2023-06-22T00:25:20;8.15;;;4.70;;
20657;SDS011;10488;50.846;4.078;2023-06-22T00:27:45;8.02;;;4.32;;
20657;SDS011;10488;50.846;4.078;2023-06-22T00:30:11;5.88;;;4.03;;
20657;SDS011;10488;50.846;4.078;2023-06-22T00:32:37;7.60;;;3.95;;
20657;SDS011;10488;50.846;4.078;2023-06-22T00:35:03;5.03;;;4.22;;
20657;SDS011;10488;50.846;4.078;2023-06-22T00:37:29;9.77;;;4.80;;
20657;SDS011;10488;50.846;4.078;2023-06-22T00:39:55;7.55;;;4.22;;
20657;SDS011;10488;50.846;4.078;2023-06-22T00:42:21;7.10;;;3.80;;
20657;SDS011;10488;50.846;4.078;2023-06-22T00:44:47;10.07;;;4.82;;
20657;SDS011;10488;50.846;4.078;2023-06-22T00:47:13;6.45;;;3.97;;
20657;SDS011;10488;50.846;4.078;2023-06-22T00:49:42;10.25;;;5.35;;
20657;SDS011;10488;50.846;4.078;2023-06-22T00:52:09;9.15;;;4.80;;
20657;SDS011;10488;50.846;4.078;2023-06-22T00:54:41;9.55;;;4.65;;
20657;SDS011;10488;50.846;4.078;2023-06-22T00:57:10;8.20;;;4.47;;
20657;SDS011;10488;50.846;4.078;2023-06-22T00:59:41;8.48;;;5.15;;
20657;SDS011;10488;50.846;4.078;2023-06-22T01:02:07;9.93;;;4.60;;
20657;SDS011;10488;50.846;4.078;2023-06-22T01:04:34;9.70;;;5.05;;
20657;SDS011;10488;50.846;4.078;2023-06-22T01:07:10;10.13;;;5.53;;
20657;SDS011;10488;50.846;4.078;2023-06-22T01:10:09;8.98;;;4.47;;
20657;SDS011;10488;50.846;4.078;2023-06-22T01:12:53;8.43;;;5.25;;
20657;SDS011;10488;50.846;4.078;2023-06-22T01:15:25;6.65;;;4.88;;
20657;SDS011;10488;50.846;4.078;2023-06-22T01:17:56;9.75;;;4.43;;
20657;SDS011;10488;50.846;4.078;2023-06-22T01:20:23;9.50;;;5.15;;
20657;SDS011;10488;50.846;4.078;2023-06-22T01:25:21;7.03;;;4.63;;
20657;SDS011;10488;50.846;4.078;2023-06-22T01:28:10;9.02;;;4.57;;
20657;SDS011;10488;50.846;4.078;2023-06-22T01:30:49;12.63;;;4.80;;
20657;SDS011;10488;50.846;4.078;2023-06-22T01:33:28;10.63;;;5.03;;
20657;SDS011;10488;50.846;4.078;2023-06-22T01:35:56;10.35;;;5.55;;
20657;SDS011;10488;50.846;4.078;2023-06-22T01:38:22;9.88;;;5.10;;
20657;SDS011;10488;50.846;4.078;2023-06-22T01:40:48;10.98;;;5.10;;
20657;SDS011;10488;50.846;4.078;2023-06-22T01:43:16;9.30;;;4.93;;
20657;SDS011;10488;50.846;4.078;2023-06-22T01:45:42;8.68;;;4.55;;
20657;SDS011;10488;50.846;4.078;2023-06-22T01:48:08;9.30;;;4.43;;
20657;SDS011;10488;50.846;4.078;2023-06-22T01:50:34;7.72;;;4.28;;
20657;SDS011;10488;50.846;4.078;2023-06-22T01:53:00;5.82;;;4.28;;
20657;SDS011;10488;50.846;4.078;2023-06-22T01:55:26;7.60;;;4.50;;
20657;SDS011;10488;50.846;4.078;2023-06-22T01:57:51;8.02;;;4.72;;
20657;SDS011;10488;50.846;4.078;2023-06-22T02:00:18;7.10;;;5.22;;
20657;SDS011;10488;50.846;4.078;2023-06-22T02:05:31;4.93;;;3.88;;
20657;SDS011;10488;50.846;4.078;2023-06-22T02:10:43;6.93;;;4.55;;
20657;SDS011;10488;50.846;4.078;2023-06-22T02:13:10;9.02;;;5.07;;
20657;SDS011;10488;50.846;4.078;2023-06-22T02:15:37;12.25;;;4.82;;
20657;SDS011;10488;50.846;4.078;2023-06-22T02:18:03;5.97;;;4.30;;
20657;SDS011;10488;50.846;4.078;2023-06-22T02:20:30;7.43;;;4.75;;
20657;SDS011;10488;50.846;4.078;2023-06-22T02:22:55;8.02;;;5.13;;
20657;SDS011;10488;50.846;4.078;2023-06-22T02:25:21;8.32;;;4.93;;
20657;SDS011;10488;50.846;4.078;2023-06-22T02:27:47;6.03;;;4.55;;
20657;SDS011;10488;50.846;4.078;2023-06-22T02:30:12;7.28;;;4.40;;
20657;SDS011;10488;50.846;4.078;2023-06-22T02:32:40;12.63;;;4.85;;
20657;SDS011;10488;50.846;4.078;2023-06-22T02:35:07;10.23;;;4.32;;
20657;SDS011;10488;50.846;4.078;2023-06-22T02:37:36;7.97;;;5.10;;
20657;SDS011;10488;50.846;4.078;2023-06-22T02:40:07;5.60;;;4.75;;
20657;SDS011;10488;50.846;4.078;2023-06-22T02:42:36;11.63;;;6.22;;
20657;SDS011;10488;50.846;4.078;2023-06-22T02:45:02;9.13;;;4.90;;
20657;SDS011;10488;50.846;4.078;2023-06-22T02:47:28;7.88;;;5.28;;
20657;SDS011;10488;50.846;4.078;2023-06-22T02:49:54;8.70;;;5.70;;
20657;SDS011;10488;50.846;4.078;2023-06-22T02:52:20;8.20;;;5.40;;
20657;SDS011;10488;50.846;4.078;2023-06-22T02:54:46;9.95;;;4.95;;
20657;SDS011;10488;50.846;4.078;2023-06-22T02:57:11;11.43;;;4.97;;
20657;SDS011;10488;50.846;4.078;2023-06-22T02:59:39;8.70;;;4.82;;
20657;SDS011;10488;50.846;4.078;2023-06-22T03:02:06;8.05;;;5.43;;
20657;SDS011;10488;50.846;4.078;2023-06-22T03:04:31;8.50;;;5.40;;
20657;SDS011;10488;50.846;4.078;2023-06-22T03:06:57;9.73;;;4.82;;
20657;SDS011;10488;50.846;4.078;2023-06-22T03:09:26;6.40;;;4.75;;
20657;SDS011;10488;50.846;4.078;2023-06-22T03:11:53;7.38;;;5.35;;
20657;SDS011;10488;50.846;4.078;2023-06-22T03:14:19;9.38;;;5.15;;
20657;SDS011;10488;50.846;4.078;2023-06-22T03:16:45;6.97;;;4.97;;
20657;SDS011;10488;50.846;4.078;2023-06-22T03:19:11;7.65;;;4.72;;
20657;SDS011;10488;50.846;4.078;2023-06-22T03:21:37;6.43;;;4.65;;
20657;SDS011;10488;50.846;4.078;2023-06-22T03:24:06;7.88;;;4.60;;
20657;SDS011;10488;50.846;4.078;2023-06-22T03:26:32;8.00;;;4.55;;
20657;SDS011;10488;50.846;4.078;2023-06-22T03:28:58;7.75;;;5.00;;
20657;SDS011;10488;50.846;4.078;2023-06-22T03:31:24;9.70;;;5.63;;
20657;SDS011;10488;50.846;4.078;2023-06-22T03:33:50;25.08;;;6.68;;
20657;SDS011;10488;50.846;4.078;2023-06-22T03:36:16;10.40;;;5.30;;
20657;SDS011;10488;50.846;4.078;2023-06-22T03:38:46;8.05;;;4.55;;
20657;SDS011;10488;50.846;4.078;2023-06-22T03:41:12;6.50;;;4.60;;
20657;SDS011;10488;50.846;4.078;2023-06-22T03:43:37;7.80;;;5.40;;
20657;SDS011;10488;50.846;4.078;2023-06-22T03:46:03;10.27;;;5.57;;
20657;SDS011;10488;50.846;4.078;2023-06-22T03:48:29;7.68;;;5.15;;
20657;SDS011;10488;50.846;4.078;2023-06-22T03:50:54;7.72;;;5.32;;
20657;SDS011;10488;50.846;4.078;2023-06-22T03:53:20;7.25;;;5.00;;
20657;SDS011;10488;50.846;4.078;2023-06-22T03:55:49;11.55;;;5.82;;
20657;SDS011;10488;50.846;4.078;2023-06-22T03:58:17;7.07;;;5.13;;
20657;SDS011;10488;50.846;4.078;2023-06-22T04:00:44;10.55;;;5.80;;
20657;SDS011;10488;50.846;4.078;2023-06-22T04:03:11;8.10;;;5.93;;
20657;SDS011;10488;50.846;4.078;2023-06-22T04:05:38;10.55;;;6.10;;
20657;SDS011;10488;50.846;4.078;2023-06-22T04:08:04;9.88;;;5.55;;
20657;SDS011;10488;50.846;4.078;2023-06-22T04:10:30;11.05;;;5.72;;
20657;SDS011;10488;50.846;4.078;2023-06-22T04:12:56;11.45;;;6.05;;
20657;SDS011;10488;50.846;4.078;2023-06-22T04:15:21;11.38;;;5.45;;
20657;SDS011;10488;50.846;4.078;2023-06-22T04:17:47;8.65;;;5.50;;
20657;SDS011;10488;50.846;4.078;2023-06-22T04:20:13;8.60;;;5.85;;
20657;SDS011;10488;50.846;4.078;2023-06-22T04:22:39;12.80;;;6.80;;
20657;SDS011;10488;50.846;4.078;2023-06-22T04:25:05;10.70;;;6.10;;
20657;SDS011;10488;50.846;4.078;2023-06-22T04:27:32;12.43;;;6.20;;
20657;SDS011;10488;50.846;4.078;2023-06-22T04:30:05;10.23;;;6.43;;
20657;SDS011;10488;50.846;4.078;2023-06-22T04:32:34;12.25;;;7.32;;
20657;SDS011;10488;50.846;4.078;2023-06-22T04:35:03;10.10;;;6.63;;
20657;SDS011;10488;50.846;4.078;2023-06-22T04:37:30;20.30;;;13.65;;
20657;SDS011;10488;50.846;4.078;2023-06-22T04:39:56;11.40;;;7.68;;
20657;SDS011;10488;50.846;4.078;2023-06-22T04:42:22;11.27;;;6.93;;
20657;SDS011;10488;50.846;4.078;2023-06-22T04:44:47;10.57;;;6.93;;
20657;SDS011;10488;50.846;4.078;2023-06-22T04:47:13;9.18;;;6.60;;
20657;SDS011;10488;50.846;4.078;2023-06-22T04:49:39;9.70;;;6.47;;
20657;SDS011;10488;50.846;4.078;2023-06-22T04:52:08;10.75;;;6.50;;
20657;SDS011;10488;50.846;4.078;2023-06-22T04:54:36;12.10;;;6.32;;
20657;SDS011;10488;50.846;4.078;2023-06-22T04:57:04;9.43;;;6.32;;
20657;SDS011;10488;50.846;4.078;2023-06-22T04:59:36;11.68;;;6.53;;
20657;SDS011;10488;50.846;4.078;2023-06-22T05:02:04;13.40;;;6.80;;
20657;SDS011;10488;50.846;4.078;2023-06-22T05:04:30;11.05;;;7.65;;
20657;SDS011;10488;50.846;4.078;2023-06-22T05:07:00;12.20;;;6.80;;
20657;SDS011;10488;50.846;4.078;2023-06-22T05:09:27;10.68;;;6.95;;
20657;SDS011;10488;50.846;4.078;2023-06-22T05:11:54;11.13;;;6.55;;
20657;SDS011;10488;50.846;4.078;2023-06-22T05:14:21;8.35;;;6.20;;
20657;SDS011;10488;50.846;4.078;2023-06-22T05:16:47;9.15;;;6.25;;
20657;SDS011;10488;50.846;4.078;2023-06-22T05:19:13;9.23;;;6.25;;
20657;SDS011;10488;50.846;4.078;2023-06-22T05:21:39;9.80;;;6.00;;
20657;SDS011;10488;50.846;4.078;2023-06-22T05:24:05;14.00;;;6.25;;
20657;SDS011;10488;50.846;4.078;2023-06-22T05:26:31;15.18;;;6.78;;
20657;SDS011;10488;50.846;4.078;2023-06-22T05:28:58;12.27;;;6.20;;
20657;SDS011;10488;50.846;4.078;2023-06-22T05:31:25;11.25;;;6.32;;
20657;SDS011;10488;50.846;4.078;2023-06-22T05:33:51;10.90;;;6.25;;
20657;SDS011;10488;50.846;4.078;2023-06-22T05:36:18;11.35;;;7.05;;
20657;SDS011;10488;50.846;4.078;2023-06-22T05:38:50;11.57;;;7.07;;
20657;SDS011;10488;50.846;4.078;2023-06-22T05:41:21;9.65;;;7.25;;
20657;SDS011;10488;50.846;4.078;2023-06-22T05:43:47;14.75;;;7.43;;
20657;SDS011;10488;50.846;4.078;2023-06-22T05:46:12;10.70;;;7.45;;
20657;SDS011;10488;50.846;4.078;2023-06-22T05:48:38;10.57;;;7.53;;
20657;SDS011;10488;50.846;4.078;2023-06-22T05:51:04;12.05;;;6.90;;
20657;SDS011;10488;50.846;4.078;2023-06-22T05:53:29;17.75;;;7.55;;
20657;SDS011;10488;50.846;4.078;2023-06-22T05:55:55;14.23;;;7.60;;
20657;SDS011;10488;50.846;4.078;2023-06-22T05:58:21;12.93;;;6.97;;
20657;SDS011;10488;50.846;4.078;2023-06-22T06:00:46;11.70;;;7.43;;
20657;SDS011;10488;50.846;4.078;2023-06-22T06:03:13;12.77;;;7.82;;
20657;SDS011;10488;50.846;4.078;2023-06-22T06:05:42;15.90;;;8.57;;
20657;SDS011;10488;50.846;4.078;2023-06-22T06:08:08;14.60;;;8.48;;
20657;SDS011;10488;50.846;4.078;2023-06-22T06:10:35;11.27;;;7.45;;
20657;SDS011;10488;50.846;4.078;2023-06-22T06:13:01;12.52;;;8.40;;
20657;SDS011;10488;50.846;4.078;2023-06-22T06:15:29;16.02;;;7.75;;
20657;SDS011;10488;50.846;4.078;2023-06-22T06:17:55;13.35;;;8.45;;
20657;SDS011;10488;50.846;4.078;2023-06-22T06:20:21;13.07;;;8.40;;
20657;SDS011;10488;50.846;4.078;2023-06-22T06:22:49;13.95;;;8.50;;
20657;SDS011;10488;50.846;4.078;2023-06-22T06:25:15;14.40;;;9.77;;
20657;SDS011;10488;50.846;4.078;2023-06-22T06:27:45;14.50;;;8.65;;
20657;SDS011;10488;50.846;4.078;2023-06-22T06:30:11;13.18;;;9.73;;
20657;SDS011;10488;50.846;4.078;2023-06-22T06:32:38;18.90;;;9.30;;
20657;SDS011;10488;50.846;4.078;2023-06-22T06:35:08;15.52;;;10.73;;
20657;SDS011;10488;50.846;4.078;2023-06-22T06:37:38;14.02;;;9.75;;
20657;SDS011;10488;50.846;4.078;2023-06-22T06:40:06;16.80;;;10.15;;
20657;SDS011;10488;50.846;4.078;2023-06-22T06:42:39;16.40;;;10.32;;
20657;SDS011;10488;50.846;4.078;2023-06-22T06:45:10;15.20;;;10.15;;
20657;SDS011;10488;50.846;4.078;2023-06-22T06:47:36;16.42;;;10.63;;
20657;SDS011;10488;50.846;4.078;2023-06-22T06:50:02;20.73;;;11.18;;
20657;SDS011;10488;50.846;4.078;2023-06-22T06:52:29;18.02;;;10.98;;
20657;SDS011;10488;50.846;4.078;2023-06-22T06:54:54;17.13;;;11.68;;
20657;SDS011;10488;50.846;4.078;2023-06-22T06:57:20;17.67;;;12.68;;
20657;SDS011;10488;50.846;4.078;2023-06-22T06:59:47;16.83;;;12.48;;
20657;SDS011;10488;50.846;4.078;2023-06-22T07:02:13;19.15;;;11.88;;
20657;SDS011;10488;50.846;4.078;2023-06-22T07:04:39;16.65;;;12.13;;
20657;SDS011;10488;50.846;4.078;2023-06-22T07:07:05;15.52;;;11.38;;
20657;SDS011;10488;50.846;4.078;2023-06-22T07:09:31;18.23;;;12.60;;
20657;SDS011;10488;50.846;4.078;2023-06-22T07:11:56;17.50;;;12.65;;
20657;SDS011;10488;50.846;4.078;2023-06-22T07:14:22;19.95;;;12.00;;
20657;SDS011;10488;50.846;4.078;2023-06-22T07:16:48;20.75;;;13.18;;
20657;SDS011;10488;50.846;4.078;2023-06-22T07:19:13;22.85;;;12.90;;
20657;SDS011;10488;50.846;4.078;2023-06-22T07:21:39;16.65;;;13.25;;
20657;SDS011;10488;50.846;4.078;2023-06-22T07:24:05;20.42;;;13.98;;
20657;SDS011;10488;50.846;4.078;2023-06-22T07:26:32;16.83;;;12.80;;
20657;SDS011;10488;50.846;4.078;2023-06-22T07:28:58;14.77;;;11.63;;
20657;SDS011;10488;50.846;4.078;2023-06-22T07:31:26;18.33;;;13.40;;
20657;SDS011;10488;50.846;4.078;2023-06-22T07:33:52;17.45;;;12.15;;
20657;SDS011;10488;50.846;4.078;2023-06-22T07:36:18;19.88;;;13.30;;
20657;SDS011;10488;50.846;4.078;2023-06-22T07:38:43;16.27;;;12.48;;
20657;SDS011;10488;50.846;4.078;2023-06-22T07:41:09;18.10;;;12.15;;
20657;SDS011;10488;50.846;4.078;2023-06-22T07:43:35;21.13;;;12.75;;
20657;SDS011;10488;50.846;4.078;2023-06-22T07:46:05;19.75;;;12.82;;
20657;SDS011;10488;50.846;4.078;2023-06-22T07:48:31;17.67;;;13.25;;
20657;SDS011;10488;50.846;4.078;2023-06-22T07:50:57;19.70;;;14.05;;
20657;SDS011;10488;50.846;4.078;2023-06-22T07:53:22;17.48;;;13.05;;
20657;SDS011;10488;50.846;4.078;2023-06-22T07:55:48;17.10;;;13.30;;
20657;SDS011;10488;50.846;4.078;2023-06-22T07:58:14;19.58;;;13.55;;
20657;SDS011;10488;50.846;4.078;2023-06-22T08:00:40;17.30;;;13.05;;
20657;SDS011;10488;50.846;4.078;2023-06-22T08:03:06;17.02;;;13.60;;
20657;SDS011;10488;50.846;4.078;2023-06-22T08:05:32;17.75;;;13.82;;
20657;SDS011;10488;50.846;4.078;2023-06-22T08:07:58;21.48;;;14.70;;
20657;SDS011;10488;50.846;4.078;2023-06-22T08:10:23;19.98;;;13.77;;
20657;SDS011;10488;50.846;4.078;2023-06-22T08:12:49;22.23;;;15.05;;
20657;SDS011;10488;50.846;4.078;2023-06-22T08:15:16;18.98;;;14.98;;
20657;SDS011;10488;50.846;4.078;2023-06-22T08:17:43;21.00;;;13.75;;
20657;SDS011;10488;50.846;4.078;2023-06-22T08:20:10;22.25;;;14.90;;
20657;SDS011;10488;50.846;4.078;2023-06-22T08:22:40;21.17;;;14.77;;
20657;SDS011;10488;50.846;4.078;2023-06-22T08:25:06;19.60;;;14.73;;
20657;SDS011;10488;50.846;4.078;2023-06-22T08:27:33;20.05;;;14.93;;
20657;SDS011;10488;50.846;4.078;2023-06-22T08:29:59;21.73;;;14.70;;
20657;SDS011;10488;50.846;4.078;2023-06-22T08:32:28;18.77;;;15.02;;
20657;SDS011;10488;50.846;4.078;2023-06-22T08:34:54;23.58;;;15.52;;
20657;SDS011;10488;50.846;4.078;2023-06-22T08:37:20;26.13;;;16.60;;
20657;SDS011;10488;50.846;4.078;2023-06-22T08:39:48;20.50;;;14.27;;
20657;SDS011;10488;50.846;4.078;2023-06-22T08:42:15;27.48;;;16.27;;
20657;SDS011;10488;50.846;4.078;2023-06-22T08:44:41;21.65;;;15.75;;
20657;SDS011;10488;50.846;4.078;2023-06-22T08:47:06;20.67;;;15.88;;
20657;SDS011;10488;50.846;4.078;2023-06-22T08:49:32;22.77;;;18.20;;
20657;SDS011;10488;50.846;4.078;2023-06-22T08:51:58;18.95;;;15.38;;
20657;SDS011;10488;50.846;4.078;2023-06-22T08:54:23;27.13;;;17.17;;
20657;SDS011;10488;50.846;4.078;2023-06-22T08:56:49;23.33;;;16.92;;
20657;SDS011;10488;50.846;4.078;2023-06-22T08:59:15;22.40;;;17.20;;
20657;SDS011;10488;50.846;4.078;2023-06-22T09:01:40;21.75;;;17.10;;
20657;SDS011;10488;50.846;4.078;2023-06-22T09:04:13;28.15;;;18.08;;
20657;SDS011;10488;50.846;4.078;2023-06-22T09:06:40;24.55;;;17.25;;
20657;SDS011;10488;50.846;4.078;2023-06-22T09:09:10;20.48;;;17.80;;
20657;SDS011;10488;50.846;4.078;2023-06-22T09:11:37;20.23;;;15.88;;
20657;SDS011;10488;50.846;4.078;2023-06-22T09:14:02;26.60;;;16.40;;
20657;SDS011;10488;50.846;4.078;2023-06-22T09:16:29;22.92;;;16.75;;
20657;SDS011;10488;50.846;4.078;2023-06-22T09:18:55;21.35;;;16.13;;
20657;SDS011;10488;50.846;4.078;2023-06-22T09:21:21;20.55;;;16.23;;
20657;SDS011;10488;50.846;4.078;2023-06-22T09:23:47;23.80;;;17.33;;
20657;SDS011;10488;50.846;4.078;2023-06-22T09:26:16;20.40;;;14.20;;
20657;SDS011;10488;50.846;4.078;2023-06-22T09:28:42;20.08;;;15.55;;
20657;SDS011;10488;50.846;4.078;2023-06-22T09:31:07;18.80;;;15.05;;
20657;SDS011;10488;50.846;4.078;2023-06-22T09:33:33;24.70;;;15.52;;
20657;SDS011;10488;50.846;4.078;2023-06-22T09:35:59;19.65;;;15.27;;
20657;SDS011;10488;50.846;4.078;2023-06-22T09:38:24;21.65;;;15.63;;
20657;SDS011;10488;50.846;4.078;2023-06-22T09:40:50;21.13;;;14.57;;
20657;SDS011;10488;50.846;4.078;2023-06-22T09:43:16;28.27;;;15.27;;
20657;SDS011;10488;50.846;4.078;2023-06-22T09:45:42;19.15;;;15.60;;
20657;SDS011;10488;50.846;4.078;2023-06-22T09:48:08;25.08;;;17.88;;
20657;SDS011;10488;50.846;4.078;2023-06-22T09:50:35;23.40;;;17.33;;
20657;SDS011;10488;50.846;4.078;2023-06-22T09:53:01;26.73;;;17.05;;
20657;SDS011;10488;50.846;4.078;2023-06-22T09:55:27;22.88;;;17.77;;
20657;SDS011;10488;50.846;4.078;2023-06-22T09:57:52;28.55;;;19.08;;
20657;SDS011;10488;50.846;4.078;2023-06-22T10:00:19;25.48;;;19.17;;
20657;SDS011;10488;50.846;4.078;2023-06-22T10:02:47;24.38;;;20.40;;
20657;SDS011;10488;50.846;4.078;2023-06-22T10:05:13;24.08;;;20.58;;
20657;SDS011;10488;50.846;4.078;2023-06-22T10:07:39;27.08;;;19.52;;
20657;SDS011;10488;50.846;4.078;2023-06-22T10:10:07;27.80;;;21.15;;
20657;SDS011;10488;50.846;4.078;2023-06-22T10:12:34;26.15;;;20.17;;
20657;SDS011;10488;50.846;4.078;2023-06-22T10:14:59;27.25;;;19.23;;
20657;SDS011;10488;50.846;4.078;2023-06-22T10:17:25;28.80;;;21.45;;
20657;SDS011;10488;50.846;4.078;2023-06-22T10:19:51;22.67;;;17.33;;
20657;SDS011;10488;50.846;4.078;2023-06-22T10:22:17;22.08;;;16.05;;
20657;SDS011;10488;50.846;4.078;2023-06-22T10:24:43;22.38;;;17.23;;
20657;SDS011;10488;50.846;4.078;2023-06-22T10:27:12;24.67;;;17.38;;
20657;SDS011;10488;50.846;4.078;2023-06-22T10:29:38;29.92;;;19.70;;
20657;SDS011;10488;50.846;4.078;2023-06-22T10:32:04;27.23;;;17.80;;
20657;SDS011;10488;50.846;4.078;2023-06-22T10:34:30;23.30;;;18.48;;
20657;SDS011;10488;50.846;4.078;2023-06-22T10:36:56;21.00;;;17.15;;
20657;SDS011;10488;50.846;4.078;2023-06-22T10:39:22;21.42;;;16.10;;
20657;SDS011;10488;50.846;4.078;2023-06-22T10:41:47;24.27;;;15.15;;
20657;SDS011;10488;50.846;4.078;2023-06-22T10:44:13;24.42;;;15.50;;
20657;SDS011;10488;50.846;4.078;2023-06-22T10:46:39;18.05;;;12.60;;
20657;SDS011;10488;50.846;4.078;2023-06-22T10:49:04;18.65;;;13.57;;
20657;SDS011;10488;50.846;4.078;2023-06-22T10:51:30;20.90;;;14.23;;
20657;SDS011;10488;50.846;4.078;2023-06-22T10:53:57;19.77;;;13.65;;
20657;SDS011;10488;50.846;4.078;2023-06-22T10:56:22;27.50;;;16.70;;
20657;SDS011;10488;50.846;4.078;2023-06-22T10:58:48;23.30;;;17.20;;
20657;SDS011;10488;50.846;4.078;2023-06-22T11:01:14;22.65;;;17.88;;
20657;SDS011;10488;50.846;4.078;2023-06-22T11:03:39;24.60;;;18.92;;
20657;SDS011;10488;50.846;4.078;2023-06-22T11:06:05;27.00;;;20.17;;
20657;SDS011;10488;50.846;4.078;2023-06-22T11:08:31;33.30;;;21.67;;
20657;SDS011;10488;50.846;4.078;2023-06-22T11:10:56;25.02;;;21.00;;
20657;SDS011;10488;50.846;4.078;2023-06-22T11:13:22;26.80;;;20.33;;
20657;SDS011;10488;50.846;4.078;2023-06-22T11:15:47;26.13;;;18.33;;
20657;SDS011;10488;50.846;4.078;2023-06-22T11:18:13;26.27;;;20.30;;
20657;SDS011;10488;50.846;4.078;2023-06-22T11:20:39;30.27;;;21.17;;
20657;SDS011;10488;50.846;4.078;2023-06-22T11:23:05;24.92;;;20.00;;
20657;SDS011;10488;50.846;4.078;2023-06-22T11:25:31;27.00;;;20.33;;
20657;SDS011;10488;50.846;4.078;2023-06-22T11:28:00;28.30;;;22.08;;
20657;SDS011;10488;50.846;4.078;2023-06-22T11:30:29;27.35;;;21.60;;
20657;SDS011;10488;50.846;4.078;2023-06-22T11:32:58;30.13;;;22.92;;
20657;SDS011;10488;50.846;4.078;2023-06-22T11:35:24;27.27;;;22.15;;
20657;SDS011;10488;50.846;4.078;2023-06-22T11:37:50;30.92;;;23.15;;
20657;SDS011;10488;50.846;4.078;2023-06-22T11:40:16;27.90;;;22.50;;
20657;SDS011;10488;50.846;4.078;2023-06-22T11:42:42;28.27;;;22.63;;
20657;SDS011;10488;50.846;4.078;2023-06-22T11:45:08;30.45;;;23.65;;
20657;SDS011;10488;50.846;4.078;2023-06-22T11:47:34;28.15;;;21.77;;
20657;SDS011;10488;50.846;4.078;2023-06-22T11:50:01;27.75;;;22.05;;
20657;SDS011;10488;50.846;4.078;2023-06-22T11:52:28;27.55;;;22.20;;
20657;SDS011;10488;50.846;4.078;2023-06-22T11:54:53;30.48;;;22.02;;
20657;SDS011;10488;50.846;4.078;2023-06-22T11:57:19;25.65;;;21.45;;
20657;SDS011;10488;50.846;4.078;2023-06-22T11:59:45;30.02;;;24.52;;
20657;SDS011;10488;50.846;4.078;2023-06-22T12:02:10;32.42;;;23.67;;
20657;SDS011;10488;50.846;4.078;2023-06-22T12:04:36;32.45;;;23.55;;
20657;SDS011;10488;50.846;4.078;2023-06-22T12:07:02;31.83;;;24.52;;
20657;SDS011;10488;50.846;4.078;2023-06-22T12:09:28;35.75;;;26.17;;
20657;SDS011;10488;50.846;4.078;2023-06-22T12:11:54;32.65;;;26.55;;
20657;SDS011;10488;50.846;4.078;2023-06-22T12:14:20;34.70;;;26.70;;
20657;SDS011;10488;50.846;4.078;2023-06-22T12:16:45;30.90;;;24.23;;
20657;SDS011;10488;50.846;4.078;2023-06-22T12:19:11;29.55;;;24.35;;
20657;SDS011;10488;50.846;4.078;2023-06-22T12:21:37;34.22;;;26.13;;
20657;SDS011;10488;50.846;4.078;2023-06-22T12:24:03;31.17;;;24.30;;
20657;SDS011;10488;50.846;4.078;2023-06-22T12:26:28;30.90;;;24.13;;
20657;SDS011;10488;50.846;4.078;2023-06-22T12:28:54;28.70;;;22.50;;
20657;SDS011;10488;50.846;4.078;2023-06-22T12:31:20;30.38;;;22.17;;
20657;SDS011;10488;50.846;4.078;2023-06-22T12:33:45;29.00;;;23.35;;
20657;SDS011;10488;50.846;4.078;2023-06-22T12:36:11;33.03;;;23.13;;
20657;SDS011;10488;50.846;4.078;2023-06-22T12:38:36;27.77;;;22.02;;
20657;SDS011;10488;50.846;4.078;2023-06-22T12:41:02;26.38;;;23.02;;
20657;SDS011;10488;50.846;4.078;2023-06-22T12:43:28;29.40;;;21.90;;
20657;SDS011;10488;50.846;4.078;2023-06-22T12:45:53;28.48;;;23.75;;
20657;SDS011;10488;50.846;4.078;2023-06-22T12:48:19;31.50;;;22.55;;
20657;SDS011;10488;50.846;4.078;2023-06-22T12:50:45;34.95;;;23.33;;
20657;SDS011;10488;50.846;4.078;2023-06-22T12:53:12;29.30;;;23.38;;
20657;SDS011;10488;50.846;4.078;2023-06-22T12:55:38;29.38;;;23.15;;
20657;SDS011;10488;50.846;4.078;2023-06-22T12:58:04;28.45;;;23.77;;
20657;SDS011;10488;50.846;4.078;2023-06-22T13:00:29;30.90;;;23.67;;
20657;SDS011;10488;50.846;4.078;2023-06-22T13:02:55;36.10;;;25.95;;
20657;SDS011;10488;50.846;4.078;2023-06-22T13:05:20;33.65;;;26.45;;
20657;SDS011;10488;50.846;4.078;2023-06-22T13:07:46;37.30;;;27.05;;
20657;SDS011;10488;50.846;4.078;2023-06-22T13:10:12;39.78;;;26.80;;
20657;SDS011;10488;50.846;4.078;2023-06-22T13:12:37;37.72;;;27.42;;
20657;SDS011;10488;50.846;4.078;2023-06-22T13:15:03;36.67;;;25.88;;
20657;SDS011;10488;50.846;4.078;2023-06-22T13:17:29;37.60;;;26.50;;
20657;SDS011;10488;50.846;4.078;2023-06-22T13:19:55;35.85;;;26.40;;
20657;SDS011;10488;50.846;4.078;2023-06-22T13:22:31;33.58;;;25.42;;
20657;SDS011;10488;50.846;4.078;2023-06-22T13:25:05;35.22;;;27.00;;
20657;SDS011;10488;50.846;4.078;2023-06-22T13:27:31;35.53;;;24.73;;
20657;SDS011;10488;50.846;4.078;2023-06-22T13:29:57;31.95;;;23.88;;
20657;SDS011;10488;50.846;4.078;2023-06-22T13:32:23;46.83;;;25.83;;
20657;SDS011;10488;50.846;4.078;2023-06-22T13:34:48;35.63;;;25.25;;
20657;SDS011;10488;50.846;4.078;2023-06-22T13:37:14;37.15;;;25.83;;
20657;SDS011;10488;50.846;4.078;2023-06-22T13:39:40;35.05;;;24.92;;
20657;SDS011;10488;50.846;4.078;2023-06-22T13:42:06;38.97;;;27.58;;
20657;SDS011;10488;50.846;4.078;2023-06-22T13:44:32;39.80;;;28.40;;
20657;SDS011;10488;50.846;4.078;2023-06-22T13:46:58;39.05;;;27.35;;
20657;SDS011;10488;50.846;4.078;2023-06-22T13:49:23;40.85;;;28.10;;
20657;SDS011;10488;50.846;4.078;2023-06-22T13:51:49;36.70;;;27.23;;
20657;SDS011;10488;50.846;4.078;2023-06-22T13:54:15;40.05;;;27.67;;
20657;SDS011;10488;50.846;4.078;2023-06-22T13:56:41;34.55;;;26.23;;
20657;SDS011;10488;50.846;4.078;2023-06-22T13:59:07;39.97;;;28.92;;
20657;SDS011;10488;50.846;4.078;2023-06-22T14:01:37;41.03;;;28.50;;
20657;SDS011;10488;50.846;4.078;2023-06-22T14:04:05;45.30;;;29.83;;
20657;SDS011;10488;50.846;4.078;2023-06-22T14:06:30;39.20;;;29.65;;
20657;SDS011;10488;50.846;4.078;2023-06-22T14:08:56;46.78;;;32.88;;
20657;SDS011;10488;50.846;4.078;2023-06-22T14:11:21;44.58;;;31.20;;
20657;SDS011;10488;50.846;4.078;2023-06-22T14:13:47;48.72;;;31.90;;
20657;SDS011;10488;50.846;4.078;2023-06-22T14:16:13;41.47;;;31.48;;
20657;SDS011;10488;50.846;4.078;2023-06-22T14:18:39;45.17;;;29.88;;
20657;SDS011;10488;50.846;4.078;2023-06-22T14:21:04;39.85;;;28.90;;
20657;SDS011;10488;50.846;4.078;2023-06-22T14:23:30;39.50;;;27.73;;
20657;SDS011;10488;50.846;4.078;2023-06-22T14:25:56;41.38;;;29.83;;
20657;SDS011;10488;50.846;4.078;2023-06-22T14:28:21;36.88;;;27.52;;
20657;SDS011;10488;50.846;4.078;2023-06-22T14:30:47;40.03;;;28.98;;
20657;SDS011;10488;50.846;4.078;2023-06-22T14:33:13;35.30;;;26.98;;
20657;SDS011;10488;50.846;4.078;2023-06-22T14:35:38;39.92;;;27.25;;